sensor_id;sensor_type;location;lat;lon;timestamp;P1;durP1;ratioP1;P2;durP2;ratioP2
63444;SDS011;49573;47.682;9.170;2023-05-14T00:02:25;13.43;;;7.50;;
63444;SDS011;49573;47.682;9.170;2023-05-14T00:05:11;10.15;;;7.05;;
63444;SDS011;49573;47.682;9.170;2023-05-14T00:07:58;9.52;;;7.03;;
63444;SDS011;49573;47.682;9.170;2023-05-14T00:10:44;10.07;;;7.30;;
63444;SDS011;49573;47.682;9.170;2023-05-14T00:13:31;8.73;;;7.20;;
63444;SDS011;49573;47.682;9.170;2023-05-14T00:16:17;9.77;;;7.95;;
63444;SDS011;49573;47.682;9.170;2023-05-14T00:19:03;8.57;;;6.82;;
63444;SDS011;49573;47.682;9.170;2023-05-14T00:21:49;9.25;;;7.15;;
63444;SDS011;49573;47.682;9.170;2023-05-14T00:24:35;7.95;;;6.55;;
63444;SDS011;49573;47.682;9.170;2023-05-14T00:27:21;8.30;;;7.17;;
63444;SDS011;49573;47.682;9.170;2023-05-14T00:30:09;10.50;;;8.10;;
63444;SDS011;49573;47.682;9.170;2023-05-14T00:32:56;10.00;;;8.27;;
63444;SDS011;49573;47.682;9.170;2023-05-14T00:35:42;9.77;;;7.60;;
63444;SDS011;49573;47.682;9.170;2023-05-14T00:38:28;11.40;;;8.32;;
63444;SDS011;49573;47.682;9.170;2023-05-14T00:41:14;12.50;;;7.20;;
63444;SDS011;49573;47.682;9.170;2023-05-14T00:44:00;9.02;;;7.60;;
63444;SDS011;49573;47.682;9.170;2023-05-14T00:46:47;8.70;;;6.97;;
63444;SDS011;49573;47.682;9.170;2023-05-14T00:49:34;8.55;;;6.95;;
63444;SDS011;49573;47.682;9.170;2023-05-14T00:52:20;10.97;;;7.80;;
63444;SDS011;49573;47.682;9.170;2023-05-14T00:55:06;9.70;;;7.93;;
63444;SDS011;49573;47.682;9.170;2023-05-14T00:57:53;10.27;;;7.55;;
63444;SDS011;49573;47.682;9.170;2023-05-14T01:00:42;10.27;;;8.02;;
63444;SDS011;49573;47.682;9.170;2023-05-14T01:03:29;9.87;;;7.50;;
63444;SDS011;49573;47.682;9.170;2023-05-14T01:06:17;9.45;;;7.60;;
63444;SDS011;49573;47.682;9.170;2023-05-14T01:09:09;9.40;;;7.15;;
63444;SDS011;49573;47.682;9.170;2023-05-14T01:12:04;9.57;;;7.40;;
63444;SDS011;49573;47.682;9.170;2023-05-14T01:14:58;9.35;;;7.20;;
63444;SDS011;49573;47.682;9.170;2023-05-14T01:17:51;8.38;;;6.43;;
63444;SDS011;49573;47.682;9.170;2023-05-14T01:20:43;7.70;;;6.05;;
63444;SDS011;49573;47.682;9.170;2023-05-14T01:23:30;7.72;;;6.35;;
63444;SDS011;49573;47.682;9.170;2023-05-14T01:26:16;8.25;;;6.93;;
63444;SDS011;49573;47.682;9.170;2023-05-14T01:29:05;8.77;;;6.97;;
63444;SDS011;49573;47.682;9.170;2023-05-14T01:31:55;9.18;;;6.47;;
63444;SDS011;49573;47.682;9.170;2023-05-14T01:34:43;7.70;;;6.53;;
63444;SDS011;49573;47.682;9.170;2023-05-14T01:37:31;8.15;;;6.55;;
63444;SDS011;49573;47.682;9.170;2023-05-14T01:40:19;9.43;;;6.75;;
63444;SDS011;49573;47.682;9.170;2023-05-14T01:43:05;8.50;;;6.35;;
63444;SDS011;49573;47.682;9.170;2023-05-14T01:45:51;8.97;;;6.67;;
63444;SDS011;49573;47.682;9.170;2023-05-14T01:48:39;9.90;;;7.18;;
63444;SDS011;49573;47.682;9.170;2023-05-14T01:51:25;9.75;;;7.00;;
63444;SDS011;49573;47.682;9.170;2023-05-14T01:54:11;11.37;;;8.10;;
63444;SDS011;49573;47.682;9.170;2023-05-14T01:56:59;8.65;;;7.25;;
63444;SDS011;49573;47.682;9.170;2023-05-14T01:59:45;9.55;;;7.40;;
63444;SDS011;49573;47.682;9.170;2023-05-14T02:02:31;9.32;;;6.85;;
63444;SDS011;49573;47.682;9.170;2023-05-14T02:05:17;7.40;;;5.93;;
63444;SDS011;49573;47.682;9.170;2023-05-14T02:08:03;8.90;;;6.03;;
63444;SDS011;49573;47.682;9.170;2023-05-14T02:10:50;8.35;;;5.25;;
63444;SDS011;49573;47.682;9.170;2023-05-14T02:13:37;7.78;;;5.53;;
63444;SDS011;49573;47.682;9.170;2023-05-14T02:16:23;6.38;;;5.38;;
63444;SDS011;49573;47.682;9.170;2023-05-14T02:19:09;8.30;;;5.75;;
63444;SDS011;49573;47.682;9.170;2023-05-14T02:21:55;9.13;;;6.57;;
63444;SDS011;49573;47.682;9.170;2023-05-14T02:24:41;10.57;;;8.20;;
63444;SDS011;49573;47.682;9.170;2023-05-14T02:27:27;8.07;;;6.68;;
63444;SDS011;49573;47.682;9.170;2023-05-14T02:30:15;8.63;;;7.20;;
63444;SDS011;49573;47.682;9.170;2023-05-14T02:33:01;8.90;;;7.38;;
63444;SDS011;49573;47.682;9.170;2023-05-14T02:35:47;7.97;;;6.72;;
63444;SDS011;49573;47.682;9.170;2023-05-14T02:38:33;9.10;;;6.95;;
63444;SDS011;49573;47.682;9.170;2023-05-14T02:41:19;9.45;;;7.63;;
63444;SDS011;49573;47.682;9.170;2023-05-14T02:44:05;8.52;;;6.75;;
63444;SDS011;49573;47.682;9.170;2023-05-14T02:46:53;9.55;;;7.75;;
63444;SDS011;49573;47.682;9.170;2023-05-14T02:49:39;8.65;;;7.05;;
63444;SDS011;49573;47.682;9.170;2023-05-14T02:52:25;9.73;;;7.60;;
63444;SDS011;49573;47.682;9.170;2023-05-14T02:55:11;8.97;;;6.50;;
63444;SDS011;49573;47.682;9.170;2023-05-14T02:57:57;8.90;;;7.33;;
63444;SDS011;49573;47.682;9.170;2023-05-14T03:00:43;9.45;;;7.45;;
63444;SDS011;49573;47.682;9.170;2023-05-14T03:03:31;9.37;;;6.63;;
63444;SDS011;49573;47.682;9.170;2023-05-14T03:06:18;10.60;;;8.05;;
63444;SDS011;49573;47.682;9.170;2023-05-14T03:09:04;9.77;;;7.30;;
63444;SDS011;49573;47.682;9.170;2023-05-14T03:11:50;9.23;;;6.93;;
63444;SDS011;49573;47.682;9.170;2023-05-14T03:14:36;9.05;;;7.15;;
63444;SDS011;49573;47.682;9.170;2023-05-14T03:17:22;9.00;;;7.43;;
63444;SDS011;49573;47.682;9.170;2023-05-14T03:20:10;9.47;;;7.00;;
63444;SDS011;49573;47.682;9.170;2023-05-14T03:22:57;10.27;;;7.55;;
63444;SDS011;49573;47.682;9.170;2023-05-14T03:25:43;9.70;;;7.87;;
63444;SDS011;49573;47.682;9.170;2023-05-14T03:28:29;9.98;;;8.05;;
63444;SDS011;49573;47.682;9.170;2023-05-14T03:31:15;8.73;;;6.93;;
63444;SDS011;49573;47.682;9.170;2023-05-14T03:34:01;9.20;;;6.97;;
63444;SDS011;49573;47.682;9.170;2023-05-14T03:36:49;9.47;;;7.87;;
63444;SDS011;49573;47.682;9.170;2023-05-14T03:39:35;8.95;;;7.03;;
63444;SDS011;49573;47.682;9.170;2023-05-14T03:42:21;10.15;;;7.43;;
63444;SDS011;49573;47.682;9.170;2023-05-14T03:45:07;10.45;;;7.60;;
63444;SDS011;49573;47.682;9.170;2023-05-14T03:50:40;9.32;;;7.03;;
63444;SDS011;49573;47.682;9.170;2023-05-14T03:53:27;10.13;;;7.27;;
63444;SDS011;49573;47.682;9.170;2023-05-14T03:56:13;8.38;;;6.95;;
63444;SDS011;49573;47.682;9.170;2023-05-14T03:58:59;9.98;;;7.53;;
63444;SDS011;49573;47.682;9.170;2023-05-14T04:01:45;9.82;;;7.53;;
63444;SDS011;49573;47.682;9.170;2023-05-14T04:04:31;9.27;;;7.23;;
63444;SDS011;49573;47.682;9.170;2023-05-14T04:07:18;10.50;;;7.27;;
63444;SDS011;49573;47.682;9.170;2023-05-14T04:10:06;8.90;;;7.35;;
63444;SDS011;49573;47.682;9.170;2023-05-14T04:12:52;9.50;;;7.80;;
63444;SDS011;49573;47.682;9.170;2023-05-14T04:15:39;10.05;;;7.93;;
63444;SDS011;49573;47.682;9.170;2023-05-14T04:18:26;9.10;;;7.20;;
63444;SDS011;49573;47.682;9.170;2023-05-14T04:21:12;9.52;;;7.57;;
63444;SDS011;49573;47.682;9.170;2023-05-14T04:23:58;8.97;;;7.17;;
63444;SDS011;49573;47.682;9.170;2023-05-14T04:26:45;8.77;;;7.10;;
63444;SDS011;49573;47.682;9.170;2023-05-14T04:29:31;12.18;;;8.50;;
63444;SDS011;49573;47.682;9.170;2023-05-14T04:32:17;10.45;;;8.05;;
63444;SDS011;49573;47.682;9.170;2023-05-14T04:35:03;10.82;;;8.25;;
63444;SDS011;49573;47.682;9.170;2023-05-14T04:37:50;9.80;;;7.88;;
63444;SDS011;49573;47.682;9.170;2023-05-14T04:40:36;11.80;;;8.90;;
63444;SDS011;49573;47.682;9.170;2023-05-14T04:43:23;16.55;;;8.00;;
63444;SDS011;49573;47.682;9.170;2023-05-14T04:46:09;10.50;;;7.95;;
63444;SDS011;49573;47.682;9.170;2023-05-14T04:48:55;10.43;;;8.10;;
63444;SDS011;49573;47.682;9.170;2023-05-14T04:51:42;12.15;;;8.98;;
63444;SDS011;49573;47.682;9.170;2023-05-14T04:54:28;12.10;;;8.30;;
63444;SDS011;49573;47.682;9.170;2023-05-14T04:57:14;11.53;;;9.27;;
63444;SDS011;49573;47.682;9.170;2023-05-14T05:00:01;11.53;;;8.97;;
63444;SDS011;49573;47.682;9.170;2023-05-14T05:02:50;13.00;;;9.75;;
63444;SDS011;49573;47.682;9.170;2023-05-14T05:05:36;11.63;;;9.37;;
63444;SDS011;49573;47.682;9.170;2023-05-14T05:08:22;11.95;;;8.73;;
63444;SDS011;49573;47.682;9.170;2023-05-14T05:11:08;14.13;;;9.73;;
63444;SDS011;49573;47.682;9.170;2023-05-14T05:13:54;11.73;;;8.82;;
63444;SDS011;49573;47.682;9.170;2023-05-14T05:16:42;11.90;;;9.32;;
63444;SDS011;49573;47.682;9.170;2023-05-14T05:19:28;13.50;;;10.65;;
63444;SDS011;49573;47.682;9.170;2023-05-14T05:22:14;13.27;;;10.17;;
63444;SDS011;49573;47.682;9.170;2023-05-14T05:25:00;10.90;;;9.03;;
63444;SDS011;49573;47.682;9.170;2023-05-14T05:27:50;11.00;;;8.65;;
63444;SDS011;49573;47.682;9.170;2023-05-14T05:30:36;13.55;;;9.88;;
63444;SDS011;49573;47.682;9.170;2023-05-14T05:33:24;16.20;;;10.98;;
63444;SDS011;49573;47.682;9.170;2023-05-14T05:36:10;11.82;;;9.38;;
63444;SDS011;49573;47.682;9.170;2023-05-14T05:38:56;12.88;;;9.57;;
63444;SDS011;49573;47.682;9.170;2023-05-14T05:41:42;14.30;;;11.10;;
63444;SDS011;49573;47.682;9.170;2023-05-14T05:44:28;14.70;;;10.25;;
63444;SDS011;49573;47.682;9.170;2023-05-14T05:47:15;15.45;;;10.13;;
63444;SDS011;49573;47.682;9.170;2023-05-14T05:50:03;12.70;;;9.80;;
63444;SDS011;49573;47.682;9.170;2023-05-14T05:52:49;12.65;;;9.15;;
63444;SDS011;49573;47.682;9.170;2023-05-14T05:55:36;14.88;;;10.45;;
63444;SDS011;49573;47.682;9.170;2023-05-14T05:58:22;16.20;;;10.10;;
63444;SDS011;49573;47.682;9.170;2023-05-14T06:01:08;18.75;;;11.60;;
63444;SDS011;49573;47.682;9.170;2023-05-14T06:03:54;16.87;;;11.53;;
63444;SDS011;49573;47.682;9.170;2023-05-14T06:06:42;16.00;;;10.85;;
63444;SDS011;49573;47.682;9.170;2023-05-14T06:09:28;18.55;;;11.60;;
63444;SDS011;49573;47.682;9.170;2023-05-14T06:12:14;15.70;;;10.90;;
63444;SDS011;49573;47.682;9.170;2023-05-14T06:15:00;16.77;;;11.18;;
63444;SDS011;49573;47.682;9.170;2023-05-14T06:17:46;16.10;;;10.97;;
63444;SDS011;49573;47.682;9.170;2023-05-14T06:20:32;18.13;;;11.38;;
63444;SDS011;49573;47.682;9.170;2023-05-14T06:23:20;15.63;;;10.40;;
63444;SDS011;49573;47.682;9.170;2023-05-14T06:26:06;16.08;;;10.30;;
63444;SDS011;49573;47.682;9.170;2023-05-14T06:28:52;16.63;;;11.70;;
63444;SDS011;49573;47.682;9.170;2023-05-14T06:31:38;14.60;;;10.70;;
63444;SDS011;49573;47.682;9.170;2023-05-14T06:34:24;14.35;;;10.40;;
63444;SDS011;49573;47.682;9.170;2023-05-14T06:37:10;14.38;;;10.27;;
63444;SDS011;49573;47.682;9.170;2023-05-14T06:39:58;14.50;;;9.55;;
63444;SDS011;49573;47.682;9.170;2023-05-14T06:42:44;14.15;;;9.07;;
63444;SDS011;49573;47.682;9.170;2023-05-14T06:45:30;15.40;;;8.85;;
63444;SDS011;49573;47.682;9.170;2023-05-14T06:48:17;14.68;;;9.68;;
63444;SDS011;49573;47.682;9.170;2023-05-14T06:51:03;15.50;;;10.15;;
63444;SDS011;49573;47.682;9.170;2023-05-14T06:53:49;11.70;;;8.75;;
63444;SDS011;49573;47.682;9.170;2023-05-14T06:56:38;15.35;;;9.93;;
63444;SDS011;49573;47.682;9.170;2023-05-14T06:59:24;13.85;;;9.73;;
63444;SDS011;49573;47.682;9.170;2023-05-14T07:02:10;13.50;;;9.40;;
63444;SDS011;49573;47.682;9.170;2023-05-14T07:04:57;14.35;;;9.73;;
63444;SDS011;49573;47.682;9.170;2023-05-14T07:07:43;13.63;;;9.88;;
63444;SDS011;49573;47.682;9.170;2023-05-14T07:10:29;14.55;;;9.75;;
63444;SDS011;49573;47.682;9.170;2023-05-14T07:13:16;13.38;;;9.48;;
63444;SDS011;49573;47.682;9.170;2023-05-14T07:16:03;13.30;;;9.57;;
63444;SDS011;49573;47.682;9.170;2023-05-14T07:18:49;14.07;;;9.23;;
63444;SDS011;49573;47.682;9.170;2023-05-14T07:21:35;13.60;;;10.30;;
63444;SDS011;49573;47.682;9.170;2023-05-14T07:24:21;13.35;;;9.68;;
63444;SDS011;49573;47.682;9.170;2023-05-14T07:27:08;13.88;;;9.50;;
63444;SDS011;49573;47.682;9.170;2023-05-14T07:29:55;16.02;;;10.23;;
63444;SDS011;49573;47.682;9.170;2023-05-14T07:32:41;12.57;;;8.27;;
63444;SDS011;49573;47.682;9.170;2023-05-14T07:35:27;13.90;;;9.77;;
63444;SDS011;49573;47.682;9.170;2023-05-14T07:38:14;11.35;;;8.05;;
63444;SDS011;49573;47.682;9.170;2023-05-14T07:41:00;11.80;;;8.57;;
63444;SDS011;49573;47.682;9.170;2023-05-14T07:43:47;11.00;;;7.70;;
63444;SDS011;49573;47.682;9.170;2023-05-14T07:46:34;10.55;;;7.55;;
63444;SDS011;49573;47.682;9.170;2023-05-14T07:49:20;10.82;;;7.85;;
63444;SDS011;49573;47.682;9.170;2023-05-14T07:52:06;12.73;;;7.93;;
63444;SDS011;49573;47.682;9.170;2023-05-14T07:54:52;12.25;;;7.28;;
63444;SDS011;49573;47.682;9.170;2023-05-14T07:57:39;9.88;;;6.93;;
63444;SDS011;49573;47.682;9.170;2023-05-14T08:00:25;11.13;;;6.85;;
63444;SDS011;49573;47.682;9.170;2023-05-14T08:03:12;9.77;;;7.07;;
63444;SDS011;49573;47.682;9.170;2023-05-14T08:05:59;10.80;;;7.75;;
63444;SDS011;49573;47.682;9.170;2023-05-14T08:08:45;10.50;;;7.37;;
63444;SDS011;49573;47.682;9.170;2023-05-14T08:11:31;10.60;;;7.50;;
63444;SDS011;49573;47.682;9.170;2023-05-14T08:14:17;11.83;;;7.93;;
63444;SDS011;49573;47.682;9.170;2023-05-14T08:17:03;10.77;;;7.80;;
63444;SDS011;49573;47.682;9.170;2023-05-14T08:19:51;11.32;;;8.43;;
63444;SDS011;49573;47.682;9.170;2023-05-14T08:22:38;11.68;;;8.63;;
63444;SDS011;49573;47.682;9.170;2023-05-14T08:25:24;11.43;;;8.27;;
63444;SDS011;49573;47.682;9.170;2023-05-14T08:28:10;14.57;;;10.02;;
63444;SDS011;49573;47.682;9.170;2023-05-14T08:30:56;13.48;;;9.73;;
63444;SDS011;49573;47.682;9.170;2023-05-14T08:33:42;14.73;;;10.77;;
63444;SDS011;49573;47.682;9.170;2023-05-14T08:36:29;14.93;;;9.77;;
63444;SDS011;49573;47.682;9.170;2023-05-14T08:39:15;13.43;;;10.05;;
63444;SDS011;49573;47.682;9.170;2023-05-14T08:42:01;12.57;;;8.73;;
63444;SDS011;49573;47.682;9.170;2023-05-14T08:44:52;12.82;;;8.82;;
63444;SDS011;49573;47.682;9.170;2023-05-14T08:47:41;12.02;;;9.13;;
63444;SDS011;49573;47.682;9.170;2023-05-14T08:50:31;14.43;;;10.27;;
63444;SDS011;49573;47.682;9.170;2023-05-14T08:53:18;13.77;;;8.90;;
63444;SDS011;49573;47.682;9.170;2023-05-14T08:56:05;13.68;;;8.98;;
63444;SDS011;49573;47.682;9.170;2023-05-14T08:58:52;10.82;;;8.50;;
63444;SDS011;49573;47.682;9.170;2023-05-14T09:01:40;12.57;;;9.37;;
63444;SDS011;49573;47.682;9.170;2023-05-14T09:04:30;12.05;;;8.82;;
63444;SDS011;49573;47.682;9.170;2023-05-14T09:07:17;12.38;;;8.00;;
63444;SDS011;49573;47.682;9.170;2023-05-14T09:10:05;12.52;;;8.57;;
63444;SDS011;49573;47.682;9.170;2023-05-14T09:12:53;13.00;;;9.35;;
63444;SDS011;49573;47.682;9.170;2023-05-14T09:15:39;12.02;;;8.30;;
63444;SDS011;49573;47.682;9.170;2023-05-14T09:18:25;15.70;;;8.77;;
63444;SDS011;49573;47.682;9.170;2023-05-14T09:21:12;12.45;;;8.82;;
63444;SDS011;49573;47.682;9.170;2023-05-14T09:23:58;11.40;;;8.63;;
63444;SDS011;49573;47.682;9.170;2023-05-14T09:26:48;11.38;;;8.13;;
63444;SDS011;49573;47.682;9.170;2023-05-14T09:29:35;12.55;;;8.55;;
63444;SDS011;49573;47.682;9.170;2023-05-14T09:32:21;12.75;;;9.00;;
63444;SDS011;49573;47.682;9.170;2023-05-14T09:35:11;11.63;;;9.13;;
63444;SDS011;49573;47.682;9.170;2023-05-14T09:37:59;13.50;;;9.55;;
63444;SDS011;49573;47.682;9.170;2023-05-14T09:40:45;11.33;;;8.73;;
63444;SDS011;49573;47.682;9.170;2023-05-14T09:43:32;11.63;;;8.40;;
63444;SDS011;49573;47.682;9.170;2023-05-14T09:46:18;11.75;;;8.20;;
63444;SDS011;49573;47.682;9.170;2023-05-14T09:49:04;14.17;;;9.03;;
63444;SDS011;49573;47.682;9.170;2023-05-14T09:51:50;11.33;;;8.63;;
63444;SDS011;49573;47.682;9.170;2023-05-14T09:54:36;12.80;;;8.70;;
63444;SDS011;49573;47.682;9.170;2023-05-14T09:57:23;12.23;;;8.80;;
63444;SDS011;49573;47.682;9.170;2023-05-14T10:00:11;13.13;;;8.37;;
63444;SDS011;49573;47.682;9.170;2023-05-14T10:02:58;12.40;;;8.50;;
63444;SDS011;49573;47.682;9.170;2023-05-14T10:05:49;10.05;;;7.55;;
63444;SDS011;49573;47.682;9.170;2023-05-14T10:08:35;10.77;;;7.63;;
63444;SDS011;49573;47.682;9.170;2023-05-14T10:11:27;10.65;;;7.95;;
63444;SDS011;49573;47.682;9.170;2023-05-14T10:14:16;10.88;;;8.20;;
63444;SDS011;49573;47.682;9.170;2023-05-14T10:17:10;9.27;;;7.50;;
63444;SDS011;49573;47.682;9.170;2023-05-14T10:20:02;10.63;;;7.65;;
63444;SDS011;49573;47.682;9.170;2023-05-14T10:22:53;11.35;;;8.35;;
63444;SDS011;49573;47.682;9.170;2023-05-14T10:25:39;10.05;;;7.75;;
63444;SDS011;49573;47.682;9.170;2023-05-14T10:28:26;12.60;;;7.40;;
63444;SDS011;49573;47.682;9.170;2023-05-14T10:31:12;9.85;;;7.07;;
63444;SDS011;49573;47.682;9.170;2023-05-14T10:34:00;10.03;;;7.20;;
63444;SDS011;49573;47.682;9.170;2023-05-14T10:36:46;9.35;;;6.82;;
63444;SDS011;49573;47.682;9.170;2023-05-14T10:39:42;8.63;;;6.55;;
63444;SDS011;49573;47.682;9.170;2023-05-14T10:42:31;11.30;;;6.13;;
63444;SDS011;49573;47.682;9.170;2023-05-14T10:45:20;9.77;;;6.53;;
63444;SDS011;49573;47.682;9.170;2023-05-14T10:48:07;10.48;;;7.00;;
63444;SDS011;49573;47.682;9.170;2023-05-14T10:50:55;10.35;;;6.80;;
63444;SDS011;49573;47.682;9.170;2023-05-14T10:53:42;10.18;;;7.13;;
63444;SDS011;49573;47.682;9.170;2023-05-14T10:56:29;8.93;;;7.10;;
63444;SDS011;49573;47.682;9.170;2023-05-14T10:59:15;7.75;;;6.25;;
63444;SDS011;49573;47.682;9.170;2023-05-14T11:02:03;8.30;;;6.18;;
63444;SDS011;49573;47.682;9.170;2023-05-14T11:04:57;8.65;;;6.47;;
63444;SDS011;49573;47.682;9.170;2023-05-14T11:07:46;9.35;;;6.05;;
63444;SDS011;49573;47.682;9.170;2023-05-14T11:10:33;8.00;;;5.82;;
63444;SDS011;49573;47.682;9.170;2023-05-14T11:13:19;7.10;;;6.07;;
63444;SDS011;49573;47.682;9.170;2023-05-14T11:16:06;7.35;;;5.38;;
63444;SDS011;49573;47.682;9.170;2023-05-14T11:18:59;7.32;;;5.95;;
63444;SDS011;49573;47.682;9.170;2023-05-14T11:21:48;6.88;;;5.43;;
63444;SDS011;49573;47.682;9.170;2023-05-14T11:24:36;9.55;;;5.60;;
63444;SDS011;49573;47.682;9.170;2023-05-14T11:27:22;7.45;;;5.38;;
63444;SDS011;49573;47.682;9.170;2023-05-14T11:30:11;7.75;;;6.20;;
63444;SDS011;49573;47.682;9.170;2023-05-14T11:32:58;7.47;;;5.93;;
63444;SDS011;49573;47.682;9.170;2023-05-14T11:35:44;6.72;;;5.45;;
63444;SDS011;49573;47.682;9.170;2023-05-14T11:38:31;6.38;;;5.32;;
63444;SDS011;49573;47.682;9.170;2023-05-14T11:41:18;9.03;;;5.67;;
63444;SDS011;49573;47.682;9.170;2023-05-14T11:44:07;6.32;;;5.05;;
63444;SDS011;49573;47.682;9.170;2023-05-14T11:46:55;7.45;;;5.35;;
63444;SDS011;49573;47.682;9.170;2023-05-14T11:49:42;6.53;;;4.85;;
63444;SDS011;49573;47.682;9.170;2023-05-14T11:52:28;6.20;;;4.65;;
63444;SDS011;49573;47.682;9.170;2023-05-14T11:55:15;7.45;;;5.00;;
63444;SDS011;49573;47.682;9.170;2023-05-14T11:58:02;8.45;;;4.80;;
63444;SDS011;49573;47.682;9.170;2023-05-14T12:00:49;7.00;;;4.75;;
63444;SDS011;49573;47.682;9.170;2023-05-14T12:03:35;6.32;;;4.07;;
63444;SDS011;49573;47.682;9.170;2023-05-14T12:06:21;5.53;;;4.32;;
63444;SDS011;49573;47.682;9.170;2023-05-14T12:09:15;4.60;;;3.72;;
63444;SDS011;49573;47.682;9.170;2023-05-14T12:12:06;5.55;;;4.47;;
63444;SDS011;49573;47.682;9.170;2023-05-14T12:14:55;5.47;;;4.53;;
63444;SDS011;49573;47.682;9.170;2023-05-14T12:17:48;6.03;;;4.10;;
63444;SDS011;49573;47.682;9.170;2023-05-14T12:20:34;5.50;;;4.63;;
63444;SDS011;49573;47.682;9.170;2023-05-14T12:23:24;6.63;;;4.70;;
63444;SDS011;49573;47.682;9.170;2023-05-14T12:26:11;5.90;;;4.70;;
63444;SDS011;49573;47.682;9.170;2023-05-14T12:28:58;6.20;;;4.38;;
63444;SDS011;49573;47.682;9.170;2023-05-14T12:31:47;4.63;;;4.00;;
63444;SDS011;49573;47.682;9.170;2023-05-14T12:34:34;5.40;;;4.50;;
63444;SDS011;49573;47.682;9.170;2023-05-14T12:37:20;5.80;;;4.03;;
63444;SDS011;49573;47.682;9.170;2023-05-14T12:40:06;5.13;;;4.15;;
63444;SDS011;49573;47.682;9.170;2023-05-14T12:42:53;4.80;;;3.83;;
63444;SDS011;49573;47.682;9.170;2023-05-14T12:45:39;7.90;;;4.30;;
63444;SDS011;49573;47.682;9.170;2023-05-14T12:48:27;5.13;;;3.90;;
63444;SDS011;49573;47.682;9.170;2023-05-14T12:51:13;5.15;;;3.72;;
63444;SDS011;49573;47.682;9.170;2023-05-14T12:53:59;5.20;;;4.50;;
63444;SDS011;49573;47.682;9.170;2023-05-14T12:56:45;6.25;;;4.22;;
63444;SDS011;49573;47.682;9.170;2023-05-14T12:59:32;6.78;;;4.00;;
63444;SDS011;49573;47.682;9.170;2023-05-14T13:02:18;5.18;;;4.20;;
63444;SDS011;49573;47.682;9.170;2023-05-14T13:05:06;5.63;;;4.45;;
63444;SDS011;49573;47.682;9.170;2023-05-14T13:07:53;5.65;;;4.70;;
63444;SDS011;49573;47.682;9.170;2023-05-14T13:10:39;5.47;;;4.30;;
63444;SDS011;49573;47.682;9.170;2023-05-14T13:13:26;4.97;;;4.20;;
63444;SDS011;49573;47.682;9.170;2023-05-14T13:16:12;4.88;;;4.22;;
63444;SDS011;49573;47.682;9.170;2023-05-14T13:19:01;5.43;;;4.18;;
63444;SDS011;49573;47.682;9.170;2023-05-14T13:21:48;5.50;;;4.28;;
63444;SDS011;49573;47.682;9.170;2023-05-14T13:24:35;5.38;;;4.50;;
63444;SDS011;49573;47.682;9.170;2023-05-14T13:27:21;4.72;;;4.10;;
63444;SDS011;49573;47.682;9.170;2023-05-14T13:30:08;6.10;;;4.28;;
63444;SDS011;49573;47.682;9.170;2023-05-14T13:32:54;4.80;;;4.00;;
63444;SDS011;49573;47.682;9.170;2023-05-14T13:35:40;5.90;;;4.40;;
63444;SDS011;49573;47.682;9.170;2023-05-14T13:38:28;5.25;;;3.97;;
63444;SDS011;49573;47.682;9.170;2023-05-14T13:41:15;4.50;;;4.00;;
63444;SDS011;49573;47.682;9.170;2023-05-14T13:44:01;5.80;;;4.25;;
63444;SDS011;49573;47.682;9.170;2023-05-14T13:46:47;5.25;;;4.20;;
63444;SDS011;49573;47.682;9.170;2023-05-14T13:49:33;5.70;;;4.82;;
63444;SDS011;49573;47.682;9.170;2023-05-14T13:52:20;4.80;;;4.10;;
63444;SDS011;49573;47.682;9.170;2023-05-14T13:55:08;5.15;;;4.25;;
63444;SDS011;49573;47.682;9.170;2023-05-14T13:57:54;4.75;;;4.10;;
63444;SDS011;49573;47.682;9.170;2023-05-14T14:00:41;5.00;;;4.10;;
63444;SDS011;49573;47.682;9.170;2023-05-14T14:03:27;4.22;;;3.78;;
63444;SDS011;49573;47.682;9.170;2023-05-14T14:06:14;5.82;;;4.18;;
63444;SDS011;49573;47.682;9.170;2023-05-14T14:09:00;5.32;;;3.92;;
63444;SDS011;49573;47.682;9.170;2023-05-14T14:11:48;6.38;;;4.10;;
63444;SDS011;49573;47.682;9.170;2023-05-14T14:14:34;4.57;;;3.70;;
63444;SDS011;49573;47.682;9.170;2023-05-14T14:17:20;6.10;;;3.72;;
63444;SDS011;49573;47.682;9.170;2023-05-14T14:20:07;5.03;;;3.95;;
63444;SDS011;49573;47.682;9.170;2023-05-14T14:22:54;5.30;;;3.92;;
63444;SDS011;49573;47.682;9.170;2023-05-14T14:25:40;5.40;;;4.00;;
63444;SDS011;49573;47.682;9.170;2023-05-14T14:28:28;5.18;;;3.90;;
63444;SDS011;49573;47.682;9.170;2023-05-14T14:31:14;4.93;;;4.03;;
63444;SDS011;49573;47.682;9.170;2023-05-14T14:34:01;6.47;;;3.50;;
63444;SDS011;49573;47.682;9.170;2023-05-14T14:36:47;4.43;;;3.40;;
63444;SDS011;49573;47.682;9.170;2023-05-14T14:39:33;4.47;;;3.70;;
63444;SDS011;49573;47.682;9.170;2023-05-14T14:42:19;4.40;;;3.35;;
63444;SDS011;49573;47.682;9.170;2023-05-14T14:45:06;4.40;;;3.40;;
63444;SDS011;49573;47.682;9.170;2023-05-14T14:51:07;3.97;;;3.58;;
63444;SDS011;49573;47.682;9.170;2023-05-14T14:53:53;4.90;;;4.00;;
63444;SDS011;49573;47.682;9.170;2023-05-14T14:56:39;5.82;;;3.92;;
63444;SDS011;49573;47.682;9.170;2023-05-14T14:59:27;6.25;;;3.70;;
63444;SDS011;49573;47.682;9.170;2023-05-14T15:02:14;5.00;;;4.10;;
63444;SDS011;49573;47.682;9.170;2023-05-14T15:05:00;7.20;;;4.38;;
63444;SDS011;49573;47.682;9.170;2023-05-14T15:07:46;5.55;;;4.20;;
63444;SDS011;49573;47.682;9.170;2023-05-14T15:10:32;6.68;;;4.40;;
63444;SDS011;49573;47.682;9.170;2023-05-14T15:13:22;5.53;;;4.30;;
63444;SDS011;49573;47.682;9.170;2023-05-14T15:18:56;6.47;;;4.70;;
63444;SDS011;49573;47.682;9.170;2023-05-14T15:21:42;6.38;;;4.85;;
63444;SDS011;49573;47.682;9.170;2023-05-14T15:24:28;6.85;;;4.85;;
63444;SDS011;49573;47.682;9.170;2023-05-14T15:27:14;7.13;;;4.28;;
63444;SDS011;49573;47.682;9.170;2023-05-14T15:30:01;5.15;;;4.20;;
63444;SDS011;49573;47.682;9.170;2023-05-14T15:32:51;5.72;;;4.32;;
63444;SDS011;49573;47.682;9.170;2023-05-14T15:35:39;6.05;;;4.80;;
63444;SDS011;49573;47.682;9.170;2023-05-14T15:38:25;6.20;;;4.80;;
63444;SDS011;49573;47.682;9.170;2023-05-14T15:41:11;7.63;;;4.63;;
63444;SDS011;49573;47.682;9.170;2023-05-14T15:43:57;6.93;;;4.70;;
63444;SDS011;49573;47.682;9.170;2023-05-14T15:46:44;5.47;;;4.28;;
63444;SDS011;49573;47.682;9.170;2023-05-14T15:49:30;5.20;;;4.68;;
63444;SDS011;49573;47.682;9.170;2023-05-14T15:52:17;6.97;;;5.10;;
63444;SDS011;49573;47.682;9.170;2023-05-14T15:55:04;6.57;;;5.10;;
63444;SDS011;49573;47.682;9.170;2023-05-14T15:57:50;5.38;;;4.70;;
63444;SDS011;49573;47.682;9.170;2023-05-14T16:00:36;8.37;;;6.33;;
63444;SDS011;49573;47.682;9.170;2023-05-14T16:03:22;6.40;;;4.70;;
63444;SDS011;49573;47.682;9.170;2023-05-14T16:06:08;23.87;;;15.80;;
63444;SDS011;49573;47.682;9.170;2023-05-14T16:08:56;7.28;;;4.93;;
63444;SDS011;49573;47.682;9.170;2023-05-14T16:11:44;4.00;;;3.13;;
63444;SDS011;49573;47.682;9.170;2023-05-14T16:14:31;4.90;;;3.50;;
63444;SDS011;49573;47.682;9.170;2023-05-14T16:17:17;6.40;;;3.03;;
63444;SDS011;49573;47.682;9.170;2023-05-14T16:20:04;4.97;;;2.40;;
63444;SDS011;49573;47.682;9.170;2023-05-14T16:22:50;3.15;;;2.50;;
63444;SDS011;49573;47.682;9.170;2023-05-14T16:25:38;5.00;;;2.60;;
63444;SDS011;49573;47.682;9.170;2023-05-14T16:28:24;5.85;;;2.47;;
63444;SDS011;49573;47.682;9.170;2023-05-14T16:31:10;5.03;;;2.80;;
63444;SDS011;49573;47.682;9.170;2023-05-14T16:33:56;3.90;;;2.50;;
63444;SDS011;49573;47.682;9.170;2023-05-14T16:36:42;5.13;;;2.10;;
63444;SDS011;49573;47.682;9.170;2023-05-14T16:39:28;4.00;;;2.20;;
63444;SDS011;49573;47.682;9.170;2023-05-14T16:42:16;3.50;;;2.33;;
63444;SDS011;49573;47.682;9.170;2023-05-14T16:45:02;5.80;;;2.20;;
63444;SDS011;49573;47.682;9.170;2023-05-14T16:47:49;5.05;;;2.30;;